Fair Oaks, Indiana
Current Conditions -  °F | °C
As of 7:35 AM on Sunday 21 Dec 2014 (Local Time) from KRZL Reporting Station
Overcast Overcast  
Wind Chill: 22°   Ceiling: 3500
Heat Index: 30°   Visibility: 7mi
Dew Point: 30°   Wind: 9mph
Humidity: 100%   Direction: 150°SSE
Pressure: 30.26"   Gusts: NA
Location:  41.08°N, 87.26°W
Report Text: KRZL 211335Z AUTO 15008KT 7SM BKN035 OVC041 M01/M01 A3026 RMK AO2
Loading
Personal Weather Stations






























Interactive Weather Map New forecast layout! Learn more

10-Day Weather Forecast

Advertisements
Track Severe Weather on mobile